Terminal Aerodrome Forecast
Issued by NWS Charleston, WV

Current Version | Previous Version | Text Only | Print | Product List | Glossary Off
Versions: 1 2 3 4 5 6 7 8 9 10 11 12 13 14 15 16 17 18 19 20 21 22 23 24 25 26 27 28 29 30

671
FTUS41 KRLX 070945 AAC
TAFEKN
TAF AMD
KEKN 070945Z 0710/0806 28007KT P6SM OVC025
      TEMPO 0710/0714 OVC012
     FM071400 28004KT P6SM BKN015
      TEMPO 0714/0718 OVC025
     FM071800 28004KT P6SM BKN025
     FM072000 VRB03KT P6SM BKN035
     FM072100 VRB03KT P6SM SCT035
     FM080500 00000KT P6SM BKN010=

USA.gov is the U.S. government's official web portal to all federal, state and local government web resources and services.